Terminal Aerodrome Forecast
Issued by NWS Atlanta, GA

Home | Current Version | Previous Version | Text Only | Print | Product List | Glossary On
Versions: 1 2 3 4 5 6 7 8 9 10 11 12 13 14 15 16 17 18 19 20 21 22 23 24 25 26 27 28 29 30
000
FTUS42 KFFC 190804 AAA
TAFCSG
TAF AMD
KCSG 190804Z 1908/2006 18020G28KT P6SM SHRA SCT021 BKN050 OVC110
      TEMPO 1908/1910 4SM TSRA OVC015CB
     FM191000 18015KT P6SM SHRA OVC018
     FM191400 22011KT P6SM OVC015
     FM192000 26016KT P6SM OVC018=

USA.gov is the U.S. government's official web portal to all federal, state and local government web resources and services.